sensor_id;sensor_type;location;lat;lon;timestamp;temperature;humidity
8043;DHT22;4064;48.132;11.366;2023-05-20T00:00:28;12.80;99.90
8043;DHT22;4064;48.132;11.366;2023-05-20T00:02:54;12.80;99.90
8043;DHT22;4064;48.132;11.366;2023-05-20T00:05:22;12.80;99.90
8043;DHT22;4064;48.132;11.366;2023-05-20T00:07:48;12.70;99.90
8043;DHT22;4064;48.132;11.366;2023-05-20T00:10:13;12.70;99.90
8043;DHT22;4064;48.132;11.366;2023-05-20T00:12:40;12.70;99.90
8043;DHT22;4064;48.132;11.366;2023-05-20T00:15:06;12.60;99.90
8043;DHT22;4064;48.132;11.366;2023-05-20T00:17:32;12.50;99.90
8043;DHT22;4064;48.132;11.366;2023-05-20T00:19:58;12.50;99.90
8043;DHT22;4064;48.132;11.366;2023-05-20T00:22:24;12.40;99.90
8043;DHT22;4064;48.132;11.366;2023-05-20T00:24:50;12.40;99.90
8043;DHT22;4064;48.132;11.366;2023-05-20T00:27:16;12.30;99.90
8043;DHT22;4064;48.132;11.366;2023-05-20T00:29:42;12.30;99.90
8043;DHT22;4064;48.132;11.366;2023-05-20T00:32:07;12.30;99.90
8043;DHT22;4064;48.132;11.366;2023-05-20T00:34:33;12.30;99.90
8043;DHT22;4064;48.132;11.366;2023-05-20T00:36:59;12.30;99.90
8043;DHT22;4064;48.132;11.366;2023-05-20T00:39:26;12.30;99.90
8043;DHT22;4064;48.132;11.366;2023-05-20T00:41:52;12.20;99.90
8043;DHT22;4064;48.132;11.366;2023-05-20T00:44:18;12.20;99.90
8043;DHT22;4064;48.132;11.366;2023-05-20T00:46:48;12.20;99.90
8043;DHT22;4064;48.132;11.366;2023-05-20T00:49:15;12.20;99.90
8043;DHT22;4064;48.132;11.366;2023-05-20T00:51:41;12.20;99.90
8043;DHT22;4064;48.132;11.366;2023-05-20T00:54:08;12.20;99.90
8043;DHT22;4064;48.132;11.366;2023-05-20T00:56:34;12.20;99.90
8043;DHT22;4064;48.132;11.366;2023-05-20T00:59:00;12.20;99.90
8043;DHT22;4064;48.132;11.366;2023-05-20T01:01:26;12.20;99.90
8043;DHT22;4064;48.132;11.366;2023-05-20T01:03:51;12.20;99.90
8043;DHT22;4064;48.132;11.366;2023-05-20T01:06:17;12.20;99.90
8043;DHT22;4064;48.132;11.366;2023-05-20T01:08:43;12.20;99.90
8043;DHT22;4064;48.132;11.366;2023-05-20T01:11:34;12.20;99.90
8043;DHT22;4064;48.132;11.366;2023-05-20T01:14:05;12.20;99.90
8043;DHT22;4064;48.132;11.366;2023-05-20T01:16:34;12.20;99.90
8043;DHT22;4064;48.132;11.366;2023-05-20T01:19:02;12.20;99.90
8043;DHT22;4064;48.132;11.366;2023-05-20T01:21:33;12.20;99.90
8043;DHT22;4064;48.132;11.366;2023-05-20T01:24:00;12.10;99.90
8043;DHT22;4064;48.132;11.366;2023-05-20T01:26:26;12.10;99.90
8043;DHT22;4064;48.132;11.366;2023-05-20T01:28:53;12.10;99.90
8043;DHT22;4064;48.132;11.366;2023-05-20T01:31:41;12.10;99.90
8043;DHT22;4064;48.132;11.366;2023-05-20T01:34:08;12.00;99.90
8043;DHT22;4064;48.132;11.366;2023-05-20T01:36:34;12.00;99.90
8043;DHT22;4064;48.132;11.366;2023-05-20T01:39:02;12.00;99.90
8043;DHT22;4064;48.132;11.366;2023-05-20T01:41:30;12.00;99.90
8043;DHT22;4064;48.132;11.366;2023-05-20T01:43:59;12.00;99.90
8043;DHT22;4064;48.132;11.366;2023-05-20T01:46:25;11.90;99.90
8043;DHT22;4064;48.132;11.366;2023-05-20T01:48:51;12.00;99.90
8043;DHT22;4064;48.132;11.366;2023-05-20T01:51:16;11.90;99.90
8043;DHT22;4064;48.132;11.366;2023-05-20T01:53:42;11.90;99.90
8043;DHT22;4064;48.132;11.366;2023-05-20T01:56:08;11.90;99.90
8043;DHT22;4064;48.132;11.366;2023-05-20T01:58:34;11.90;99.90
8043;DHT22;4064;48.132;11.366;2023-05-20T02:01:00;11.90;99.90
8043;DHT22;4064;48.132;11.366;2023-05-20T02:03:26;11.90;99.90
8043;DHT22;4064;48.132;11.366;2023-05-20T02:05:52;11.90;99.90
8043;DHT22;4064;48.132;11.366;2023-05-20T02:08:18;11.90;99.90
8043;DHT22;4064;48.132;11.366;2023-05-20T02:10:46;11.80;99.90
8043;DHT22;4064;48.132;11.366;2023-05-20T02:13:12;11.90;99.90
8043;DHT22;4064;48.132;11.366;2023-05-20T02:15:41;11.80;99.90
8043;DHT22;4064;48.132;11.366;2023-05-20T02:18:07;11.80;99.90
8043;DHT22;4064;48.132;11.366;2023-05-20T02:20:36;11.80;99.90
8043;DHT22;4064;48.132;11.366;2023-05-20T02:23:02;11.80;99.90
8043;DHT22;4064;48.132;11.366;2023-05-20T02:25:31;11.80;99.90
8043;DHT22;4064;48.132;11.366;2023-05-20T02:27:57;11.80;99.90
8043;DHT22;4064;48.132;11.366;2023-05-20T02:30:22;11.80;99.90
8043;DHT22;4064;48.132;11.366;2023-05-20T02:32:49;11.80;99.90
8043;DHT22;4064;48.132;11.366;2023-05-20T02:35:15;11.80;99.90
8043;DHT22;4064;48.132;11.366;2023-05-20T02:37:41;11.80;99.90
8043;DHT22;4064;48.132;11.366;2023-05-20T02:40:09;11.70;99.90
8043;DHT22;4064;48.132;11.366;2023-05-20T02:42:36;11.80;99.90
8043;DHT22;4064;48.132;11.366;2023-05-20T02:45:02;11.80;99.90
8043;DHT22;4064;48.132;11.366;2023-05-20T02:47:28;11.80;99.90
8043;DHT22;4064;48.132;11.366;2023-05-20T02:49:54;11.70;99.90
8043;DHT22;4064;48.132;11.366;2023-05-20T02:52:20;11.70;99.90
8043;DHT22;4064;48.132;11.366;2023-05-20T02:54:46;11.70;99.90
8043;DHT22;4064;48.132;11.366;2023-05-20T02:57:12;11.70;99.90
8043;DHT22;4064;48.132;11.366;2023-05-20T02:59:38;11.70;99.90
8043;DHT22;4064;48.132;11.366;2023-05-20T03:02:03;11.70;99.90
8043;DHT22;4064;48.132;11.366;2023-05-20T03:04:29;11.80;99.90
8043;DHT22;4064;48.132;11.366;2023-05-20T03:06:56;11.70;99.90
8043;DHT22;4064;48.132;11.366;2023-05-20T03:09:23;11.80;99.90
8043;DHT22;4064;48.132;11.366;2023-05-20T03:11:49;11.80;99.90
8043;DHT22;4064;48.132;11.366;2023-05-20T03:14:15;11.80;99.90
8043;DHT22;4064;48.132;11.366;2023-05-20T03:16:42;11.70;99.90
8043;DHT22;4064;48.132;11.366;2023-05-20T03:19:07;11.70;99.90
8043;DHT22;4064;48.132;11.366;2023-05-20T03:21:33;11.70;99.90
8043;DHT22;4064;48.132;11.366;2023-05-20T03:23:59;11.70;99.90
8043;DHT22;4064;48.132;11.366;2023-05-20T03:26:25;11.70;99.90
8043;DHT22;4064;48.132;11.366;2023-05-20T03:28:52;11.70;99.90
8043;DHT22;4064;48.132;11.366;2023-05-20T03:31:18;11.70;99.90
8043;DHT22;4064;48.132;11.366;2023-05-20T03:33:44;11.70;99.90
8043;DHT22;4064;48.132;11.366;2023-05-20T03:36:10;11.70;99.90
8043;DHT22;4064;48.132;11.366;2023-05-20T03:38:36;11.70;99.90
8043;DHT22;4064;48.132;11.366;2023-05-20T03:41:02;11.70;99.90
8043;DHT22;4064;48.132;11.366;2023-05-20T03:43:28;11.70;99.90
8043;DHT22;4064;48.132;11.366;2023-05-20T03:45:54;11.70;99.90
8043;DHT22;4064;48.132;11.366;2023-05-20T03:48:20;11.70;99.90
8043;DHT22;4064;48.132;11.366;2023-05-20T03:50:45;11.70;99.90
8043;DHT22;4064;48.132;11.366;2023-05-20T03:53:11;11.60;99.90
8043;DHT22;4064;48.132;11.366;2023-05-20T03:55:37;11.60;99.90
8043;DHT22;4064;48.132;11.366;2023-05-20T03:58:03;11.60;99.90
8043;DHT22;4064;48.132;11.366;2023-05-20T04:00:29;11.60;99.90
8043;DHT22;4064;48.132;11.366;2023-05-20T04:02:56;11.60;99.90
8043;DHT22;4064;48.132;11.366;2023-05-20T04:05:22;11.60;99.90
8043;DHT22;4064;48.132;11.366;2023-05-20T04:07:49;11.60;99.90
8043;DHT22;4064;48.132;11.366;2023-05-20T04:10:17;11.60;99.90
8043;DHT22;4064;48.132;11.366;2023-05-20T04:12:42;11.60;99.90
8043;DHT22;4064;48.132;11.366;2023-05-20T04:15:09;11.60;99.90
8043;DHT22;4064;48.132;11.366;2023-05-20T04:17:35;11.60;99.90
8043;DHT22;4064;48.132;11.366;2023-05-20T04:20:04;11.60;99.90
8043;DHT22;4064;48.132;11.366;2023-05-20T04:22:32;11.60;99.90
8043;DHT22;4064;48.132;11.366;2023-05-20T04:24:59;11.60;99.90
8043;DHT22;4064;48.132;11.366;2023-05-20T04:27:25;11.60;99.90
8043;DHT22;4064;48.132;11.366;2023-05-20T04:29:51;11.60;99.90
8043;DHT22;4064;48.132;11.366;2023-05-20T04:32:19;11.60;99.90
8043;DHT22;4064;48.132;11.366;2023-05-20T04:34:45;11.60;99.90
8043;DHT22;4064;48.132;11.366;2023-05-20T04:37:12;11.60;99.90
8043;DHT22;4064;48.132;11.366;2023-05-20T04:39:38;11.60;99.90
8043;DHT22;4064;48.132;11.366;2023-05-20T04:42:06;11.60;99.90
8043;DHT22;4064;48.132;11.366;2023-05-20T04:44:32;11.60;99.90
8043;DHT22;4064;48.132;11.366;2023-05-20T04:46:58;11.60;99.90
8043;DHT22;4064;48.132;11.366;2023-05-20T04:49:24;11.60;99.90
8043;DHT22;4064;48.132;11.366;2023-05-20T04:51:51;11.60;99.90
8043;DHT22;4064;48.132;11.366;2023-05-20T04:54:17;11.70;99.90
8043;DHT22;4064;48.132;11.366;2023-05-20T04:56:44;11.70;99.90
8043;DHT22;4064;48.132;11.366;2023-05-20T04:59:11;11.70;99.90
8043;DHT22;4064;48.132;11.366;2023-05-20T05:01:38;11.70;99.90
8043;DHT22;4064;48.132;11.366;2023-05-20T05:04:04;11.70;99.90
8043;DHT22;4064;48.132;11.366;2023-05-20T05:06:30;11.80;99.90
8043;DHT22;4064;48.132;11.366;2023-05-20T05:08:56;11.80;99.90
8043;DHT22;4064;48.132;11.366;2023-05-20T05:11:22;11.80;99.90
8043;DHT22;4064;48.132;11.366;2023-05-20T05:13:48;11.80;99.90
8043;DHT22;4064;48.132;11.366;2023-05-20T05:16:14;11.80;99.90
8043;DHT22;4064;48.132;11.366;2023-05-20T05:18:39;11.80;99.90
8043;DHT22;4064;48.132;11.366;2023-05-20T05:21:06;11.80;99.90
8043;DHT22;4064;48.132;11.366;2023-05-20T05:23:32;11.80;99.90
8043;DHT22;4064;48.132;11.366;2023-05-20T05:25:58;11.80;99.90
8043;DHT22;4064;48.132;11.366;2023-05-20T05:28:24;11.80;99.90
8043;DHT22;4064;48.132;11.366;2023-05-20T05:30:52;11.80;99.90
8043;DHT22;4064;48.132;11.366;2023-05-20T05:33:18;11.80;99.90
8043;DHT22;4064;48.132;11.366;2023-05-20T05:35:44;11.90;99.90
8043;DHT22;4064;48.132;11.366;2023-05-20T05:38:11;11.90;99.90
8043;DHT22;4064;48.132;11.366;2023-05-20T05:40:37;11.90;99.90
8043;DHT22;4064;48.132;11.366;2023-05-20T05:43:03;12.00;99.90
8043;DHT22;4064;48.132;11.366;2023-05-20T05:45:29;12.00;99.90
8043;DHT22;4064;48.132;11.366;2023-05-20T05:47:55;12.00;99.90
8043;DHT22;4064;48.132;11.366;2023-05-20T05:50:20;12.10;99.90
8043;DHT22;4064;48.132;11.366;2023-05-20T05:52:46;12.10;99.90
8043;DHT22;4064;48.132;11.366;2023-05-20T05:55:12;12.20;99.90
8043;DHT22;4064;48.132;11.366;2023-05-20T05:57:38;12.20;99.90
8043;DHT22;4064;48.132;11.366;2023-05-20T06:00:04;12.30;99.90
8043;DHT22;4064;48.132;11.366;2023-05-20T06:02:30;12.40;99.90
8043;DHT22;4064;48.132;11.366;2023-05-20T06:05:03;12.40;99.90
8043;DHT22;4064;48.132;11.366;2023-05-20T06:07:29;12.50;99.90
8043;DHT22;4064;48.132;11.366;2023-05-20T06:09:55;12.60;99.90
8043;DHT22;4064;48.132;11.366;2023-05-20T06:12:21;12.60;99.90
8043;DHT22;4064;48.132;11.366;2023-05-20T06:14:48;12.60;99.90
8043;DHT22;4064;48.132;11.366;2023-05-20T06:17:14;12.60;99.90
8043;DHT22;4064;48.132;11.366;2023-05-20T06:19:39;12.70;99.90
8043;DHT22;4064;48.132;11.366;2023-05-20T06:22:05;12.80;99.90
8043;DHT22;4064;48.132;11.366;2023-05-20T06:24:32;12.90;99.90
8043;DHT22;4064;48.132;11.366;2023-05-20T06:26:59;13.10;99.90
8043;DHT22;4064;48.132;11.366;2023-05-20T06:29:25;13.30;99.90
8043;DHT22;4064;48.132;11.366;2023-05-20T06:31:50;13.50;99.90
8043;DHT22;4064;48.132;11.366;2023-05-20T06:34:16;13.60;99.90
8043;DHT22;4064;48.132;11.366;2023-05-20T06:36:42;13.70;99.90
8043;DHT22;4064;48.132;11.366;2023-05-20T06:39:08;13.80;99.90
8043;DHT22;4064;48.132;11.366;2023-05-20T06:41:38;13.90;99.90
8043;DHT22;4064;48.132;11.366;2023-05-20T06:44:05;13.90;99.90
8043;DHT22;4064;48.132;11.366;2023-05-20T06:46:32;13.80;99.90
8043;DHT22;4064;48.132;11.366;2023-05-20T06:48:59;13.80;99.90
8043;DHT22;4064;48.132;11.366;2023-05-20T06:51:27;13.70;99.90
8043;DHT22;4064;48.132;11.366;2023-05-20T06:53:53;13.70;99.90
8043;DHT22;4064;48.132;11.366;2023-05-20T06:56:18;13.70;99.90
8043;DHT22;4064;48.132;11.366;2023-05-20T06:58:46;13.70;99.90
8043;DHT22;4064;48.132;11.366;2023-05-20T07:01:12;13.70;99.90
8043;DHT22;4064;48.132;11.366;2023-05-20T07:03:38;13.80;99.90
8043;DHT22;4064;48.132;11.366;2023-05-20T07:06:04;13.90;99.90
8043;DHT22;4064;48.132;11.366;2023-05-20T07:08:30;14.10;99.90
8043;DHT22;4064;48.132;11.366;2023-05-20T07:10:56;14.40;99.90
8043;DHT22;4064;48.132;11.366;2023-05-20T07:13:22;14.70;99.90
8043;DHT22;4064;48.132;11.366;2023-05-20T07:15:48;15.10;99.90
8043;DHT22;4064;48.132;11.366;2023-05-20T07:18:15;15.20;99.90
8043;DHT22;4064;48.132;11.366;2023-05-20T07:20:42;15.30;99.90
8043;DHT22;4064;48.132;11.366;2023-05-20T07:23:08;15.30;99.90
8043;DHT22;4064;48.132;11.366;2023-05-20T07:25:34;15.80;99.90
8043;DHT22;4064;48.132;11.366;2023-05-20T07:28:01;16.00;99.90
8043;DHT22;4064;48.132;11.366;2023-05-20T07:30:26;16.50;99.90
8043;DHT22;4064;48.132;11.366;2023-05-20T07:32:52;17.00;99.90
8043;DHT22;4064;48.132;11.366;2023-05-20T07:35:18;17.00;99.90
8043;DHT22;4064;48.132;11.366;2023-05-20T07:37:44;16.80;99.90
8043;DHT22;4064;48.132;11.366;2023-05-20T07:40:10;16.60;99.90
8043;DHT22;4064;48.132;11.366;2023-05-20T07:42:36;16.60;99.90
8043;DHT22;4064;48.132;11.366;2023-05-20T07:45:02;16.80;99.90
8043;DHT22;4064;48.132;11.366;2023-05-20T07:47:30;17.40;99.90
8043;DHT22;4064;48.132;11.366;2023-05-20T07:49:56;17.70;99.90
8043;DHT22;4064;48.132;11.366;2023-05-20T07:52:22;17.60;99.90
8043;DHT22;4064;48.132;11.366;2023-05-20T07:54:48;17.30;99.90
8043;DHT22;4064;48.132;11.366;2023-05-20T07:57:14;16.90;99.90
8043;DHT22;4064;48.132;11.366;2023-05-20T07:59:40;16.60;99.90
8043;DHT22;4064;48.132;11.366;2023-05-20T08:02:05;16.30;99.90
8043;DHT22;4064;48.132;11.366;2023-05-20T08:04:31;16.30;99.90
8043;DHT22;4064;48.132;11.366;2023-05-20T08:06:57;16.30;99.90
8043;DHT22;4064;48.132;11.366;2023-05-20T08:09:23;16.20;99.90
8043;DHT22;4064;48.132;11.366;2023-05-20T08:11:49;16.30;99.90
8043;DHT22;4064;48.132;11.366;2023-05-20T08:14:15;16.30;99.90
8043;DHT22;4064;48.132;11.366;2023-05-20T08:16:41;16.70;99.90
8043;DHT22;4064;48.132;11.366;2023-05-20T08:19:07;16.90;99.90
8043;DHT22;4064;48.132;11.366;2023-05-20T08:21:33;17.10;99.90
8043;DHT22;4064;48.132;11.366;2023-05-20T08:24:00;17.30;99.90
8043;DHT22;4064;48.132;11.366;2023-05-20T08:26:26;17.70;99.90
8043;DHT22;4064;48.132;11.366;2023-05-20T08:28:52;18.00;99.90
8043;DHT22;4064;48.132;11.366;2023-05-20T08:31:19;18.00;99.90
8043;DHT22;4064;48.132;11.366;2023-05-20T08:33:44;18.10;99.90
8043;DHT22;4064;48.132;11.366;2023-05-20T08:36:10;18.00;99.90
8043;DHT22;4064;48.132;11.366;2023-05-20T08:38:36;18.20;99.90
8043;DHT22;4064;48.132;11.366;2023-05-20T08:41:02;18.70;99.90
8043;DHT22;4064;48.132;11.366;2023-05-20T08:43:27;19.00;99.90
8043;DHT22;4064;48.132;11.366;2023-05-20T08:45:55;19.20;99.90
8043;DHT22;4064;48.132;11.366;2023-05-20T08:48:25;19.20;99.90
8043;DHT22;4064;48.132;11.366;2023-05-20T08:50:52;19.40;99.90
8043;DHT22;4064;48.132;11.366;2023-05-20T08:53:22;19.60;99.90
8043;DHT22;4064;48.132;11.366;2023-05-20T08:55:53;19.50;99.90
8043;DHT22;4064;48.132;11.366;2023-05-20T08:58:21;19.60;99.90
8043;DHT22;4064;48.132;11.366;2023-05-20T09:00:48;19.60;99.90
8043;DHT22;4064;48.132;11.366;2023-05-20T09:03:13;19.60;99.90
8043;DHT22;4064;48.132;11.366;2023-05-20T09:05:39;19.50;99.90
8043;DHT22;4064;48.132;11.366;2023-05-20T09:08:07;19.70;99.90
8043;DHT22;4064;48.132;11.366;2023-05-20T09:10:35;19.70;99.90
8043;DHT22;4064;48.132;11.366;2023-05-20T09:13:03;19.70;99.90
8043;DHT22;4064;48.132;11.366;2023-05-20T09:15:32;19.70;99.90
8043;DHT22;4064;48.132;11.366;2023-05-20T09:18:00;19.70;99.90
8043;DHT22;4064;48.132;11.366;2023-05-20T09:20:27;19.60;99.90
8043;DHT22;4064;48.132;11.366;2023-05-20T09:23:04;19.50;99.90
8043;DHT22;4064;48.132;11.366;2023-05-20T09:25:32;19.40;99.90
8043;DHT22;4064;48.132;11.366;2023-05-20T09:27:58;19.60;99.90
8043;DHT22;4064;48.132;11.366;2023-05-20T09:30:25;19.60;99.90
8043;DHT22;4064;48.132;11.366;2023-05-20T09:32:54;19.60;99.90
8043;DHT22;4064;48.132;11.366;2023-05-20T09:35:21;19.50;99.90
8043;DHT22;4064;48.132;11.366;2023-05-20T09:37:55;19.70;99.90
8043;DHT22;4064;48.132;11.366;2023-05-20T09:40:41;19.80;99.90
8043;DHT22;4064;48.132;11.366;2023-05-20T09:43:10;19.60;99.90
8043;DHT22;4064;48.132;11.366;2023-05-20T09:45:37;19.70;99.90
8043;DHT22;4064;48.132;11.366;2023-05-20T09:48:04;19.60;99.90
8043;DHT22;4064;48.132;11.366;2023-05-20T09:50:31;19.70;99.90
8043;DHT22;4064;48.132;11.366;2023-05-20T09:53:02;19.80;99.90
8043;DHT22;4064;48.132;11.366;2023-05-20T09:55:29;19.90;99.90
8043;DHT22;4064;48.132;11.366;2023-05-20T09:57:58;20.10;99.90
8043;DHT22;4064;48.132;11.366;2023-05-20T10:00:26;20.20;99.90
8043;DHT22;4064;48.132;11.366;2023-05-20T10:02:52;20.30;99.90
8043;DHT22;4064;48.132;11.366;2023-05-20T10:05:42;20.60;99.90
8043;DHT22;4064;48.132;11.366;2023-05-20T10:11:53;21.90;99.90
8043;DHT22;4064;48.132;11.366;2023-05-20T10:14:39;22.70;99.90
8043;DHT22;4064;48.132;11.366;2023-05-20T10:19:35;23.20;97.20
8043;DHT22;4064;48.132;11.366;2023-05-20T10:22:06;22.90;96.60
8043;DHT22;4064;48.132;11.366;2023-05-20T10:24:42;22.70;94.60
8043;DHT22;4064;48.132;11.366;2023-05-20T10:27:10;22.40;94.30
8043;DHT22;4064;48.132;11.366;2023-05-20T10:29:56;22.40;95.70
8043;DHT22;4064;48.132;11.366;2023-05-20T10:32:29;22.60;95.10
8043;DHT22;4064;48.132;11.366;2023-05-20T10:35:07;22.50;94.90
8043;DHT22;4064;48.132;11.366;2023-05-20T10:37:43;22.40;94.40
8043;DHT22;4064;48.132;11.366;2023-05-20T10:40:15;22.50;94.60
8043;DHT22;4064;48.132;11.366;2023-05-20T10:42:42;22.80;94.40
8043;DHT22;4064;48.132;11.366;2023-05-20T10:45:09;23.20;93.90
8043;DHT22;4064;48.132;11.366;2023-05-20T10:47:40;23.40;92.10
8043;DHT22;4064;48.132;11.366;2023-05-20T10:50:07;23.50;91.40
8043;DHT22;4064;48.132;11.366;2023-05-20T10:52:40;23.40;91.30
8043;DHT22;4064;48.132;11.366;2023-05-20T10:55:07;23.30;91.40
8043;DHT22;4064;48.132;11.366;2023-05-20T10:57:44;23.40;90.00
8043;DHT22;4064;48.132;11.366;2023-05-20T11:00:11;23.40;90.30
8043;DHT22;4064;48.132;11.366;2023-05-20T11:02:38;23.60;90.10
8043;DHT22;4064;48.132;11.366;2023-05-20T11:05:10;23.80;90.70
8043;DHT22;4064;48.132;11.366;2023-05-20T11:07:37;23.70;87.60
8043;DHT22;4064;48.132;11.366;2023-05-20T11:10:07;23.60;88.30
8043;DHT22;4064;48.132;11.366;2023-05-20T11:12:34;23.50;90.00
8043;DHT22;4064;48.132;11.366;2023-05-20T11:15:01;23.40;88.10
8043;DHT22;4064;48.132;11.366;2023-05-20T11:17:27;23.20;88.50
8043;DHT22;4064;48.132;11.366;2023-05-20T11:19:53;23.30;90.30
8043;DHT22;4064;48.132;11.366;2023-05-20T11:22:18;23.70;89.50
8043;DHT22;4064;48.132;11.366;2023-05-20T11:24:45;24.00;88.30
8043;DHT22;4064;48.132;11.366;2023-05-20T11:27:12;24.10;88.80
8043;DHT22;4064;48.132;11.366;2023-05-20T11:29:39;24.20;87.70
8043;DHT22;4064;48.132;11.366;2023-05-20T11:32:06;24.30;88.00
8043;DHT22;4064;48.132;11.366;2023-05-20T11:34:36;24.50;87.50
8043;DHT22;4064;48.132;11.366;2023-05-20T11:37:06;24.60;88.70
8043;DHT22;4064;48.132;11.366;2023-05-20T11:39:33;24.70;82.50
8043;DHT22;4064;48.132;11.366;2023-05-20T11:41:59;24.80;79.40
8043;DHT22;4064;48.132;11.366;2023-05-20T11:44:25;24.90;77.20
8043;DHT22;4064;48.132;11.366;2023-05-20T11:46:51;25.10;79.30
8043;DHT22;4064;48.132;11.366;2023-05-20T11:49:23;25.10;79.40
8043;DHT22;4064;48.132;11.366;2023-05-20T11:51:49;25.10;80.20
8043;DHT22;4064;48.132;11.366;2023-05-20T11:54:16;25.10;78.80
8043;DHT22;4064;48.132;11.366;2023-05-20T11:56:43;25.00;76.50
8043;DHT22;4064;48.132;11.366;2023-05-20T11:59:09;24.80;74.80
8043;DHT22;4064;48.132;11.366;2023-05-20T12:01:38;24.70;73.80
8043;DHT22;4064;48.132;11.366;2023-05-20T12:04:12;24.80;73.80
8043;DHT22;4064;48.132;11.366;2023-05-20T12:06:39;24.90;76.50
8043;DHT22;4064;48.132;11.366;2023-05-20T12:09:06;25.10;73.90
8043;DHT22;4064;48.132;11.366;2023-05-20T12:11:37;25.20;71.90
8043;DHT22;4064;48.132;11.366;2023-05-20T12:14:07;25.10;73.40
8043;DHT22;4064;48.132;11.366;2023-05-20T12:16:35;25.10;73.60
8043;DHT22;4064;48.132;11.366;2023-05-20T12:19:02;25.10;72.60
8043;DHT22;4064;48.132;11.366;2023-05-20T12:21:28;25.10;73.60
8043;DHT22;4064;48.132;11.366;2023-05-20T12:23:54;25.10;73.40
8043;DHT22;4064;48.132;11.366;2023-05-20T12:26:27;25.10;73.60
8043;DHT22;4064;48.132;11.366;2023-05-20T12:28:53;25.10;74.70
8043;DHT22;4064;48.132;11.366;2023-05-20T12:31:20;25.20;73.50
8043;DHT22;4064;48.132;11.366;2023-05-20T12:33:46;25.20;71.60
8043;DHT22;4064;48.132;11.366;2023-05-20T12:36:13;25.40;72.20
8043;DHT22;4064;48.132;11.366;2023-05-20T12:38:39;25.70;72.70
8043;DHT22;4064;48.132;11.366;2023-05-20T12:41:05;25.70;71.90
8043;DHT22;4064;48.132;11.366;2023-05-20T12:43:31;25.80;71.60
8043;DHT22;4064;48.132;11.366;2023-05-20T12:45:57;25.70;70.20
8043;DHT22;4064;48.132;11.366;2023-05-20T12:48:23;25.50;71.20
8043;DHT22;4064;48.132;11.366;2023-05-20T12:50:49;25.70;70.20
8043;DHT22;4064;48.132;11.366;2023-05-20T12:53:14;25.60;69.70
8043;DHT22;4064;48.132;11.366;2023-05-20T12:55:41;25.70;70.60
8043;DHT22;4064;48.132;11.366;2023-05-20T12:58:06;25.90;70.40
8043;DHT22;4064;48.132;11.366;2023-05-20T13:00:35;26.10;68.80
8043;DHT22;4064;48.132;11.366;2023-05-20T13:03:02;26.30;70.20
8043;DHT22;4064;48.132;11.366;2023-05-20T13:05:28;26.30;67.40
8043;DHT22;4064;48.132;11.366;2023-05-20T13:07:54;25.90;67.00
8043;DHT22;4064;48.132;11.366;2023-05-20T13:10:21;25.60;69.00
8043;DHT22;4064;48.132;11.366;2023-05-20T13:12:47;25.30;69.40
8043;DHT22;4064;48.132;11.366;2023-05-20T13:15:13;25.50;71.50
8043;DHT22;4064;48.132;11.366;2023-05-20T13:17:40;25.40;70.80
8043;DHT22;4064;48.132;11.366;2023-05-20T13:20:09;25.30;70.60
8043;DHT22;4064;48.132;11.366;2023-05-20T13:22:36;25.50;70.00
8043;DHT22;4064;48.132;11.366;2023-05-20T13:25:04;25.50;70.40
8043;DHT22;4064;48.132;11.366;2023-05-20T13:27:29;25.70;70.50
8043;DHT22;4064;48.132;11.366;2023-05-20T13:29:56;25.50;68.80
8043;DHT22;4064;48.132;11.366;2023-05-20T13:32:22;25.50;68.20
8043;DHT22;4064;48.132;11.366;2023-05-20T13:34:48;25.40;67.00
8043;DHT22;4064;48.132;11.366;2023-05-20T13:37:14;25.10;67.80
8043;DHT22;4064;48.132;11.366;2023-05-20T13:39:40;25.10;67.80
8043;DHT22;4064;48.132;11.366;2023-05-20T13:42:06;25.00;66.40
8043;DHT22;4064;48.132;11.366;2023-05-20T13:44:32;24.90;66.10
8043;DHT22;4064;48.132;11.366;2023-05-20T13:46:58;24.80;67.30
8043;DHT22;4064;48.132;11.366;2023-05-20T13:49:24;24.70;67.50
8043;DHT22;4064;48.132;11.366;2023-05-20T13:51:50;24.60;66.20
8043;DHT22;4064;48.132;11.366;2023-05-20T13:54:16;24.30;67.00
8043;DHT22;4064;48.132;11.366;2023-05-20T13:56:42;24.30;67.50
8043;DHT22;4064;48.132;11.366;2023-05-20T13:59:08;24.10;68.00
8043;DHT22;4064;48.132;11.366;2023-05-20T14:01:34;23.90;69.40
8043;DHT22;4064;48.132;11.366;2023-05-20T14:04:00;23.80;69.40
8043;DHT22;4064;48.132;11.366;2023-05-20T14:06:26;23.90;70.00
8043;DHT22;4064;48.132;11.366;2023-05-20T14:08:55;23.90;69.40
8043;DHT22;4064;48.132;11.366;2023-05-20T14:11:21;23.70;69.20
8043;DHT22;4064;48.132;11.366;2023-05-20T14:13:46;23.60;69.80
8043;DHT22;4064;48.132;11.366;2023-05-20T14:16:12;23.50;69.80
8043;DHT22;4064;48.132;11.366;2023-05-20T14:18:38;23.30;69.70
8043;DHT22;4064;48.132;11.366;2023-05-20T14:21:04;23.20;69.50
8043;DHT22;4064;48.132;11.366;2023-05-20T14:23:30;23.10;69.70
8043;DHT22;4064;48.132;11.366;2023-05-20T14:25:55;23.00;70.20
8043;DHT22;4064;48.132;11.366;2023-05-20T14:28:22;22.90;70.50
8043;DHT22;4064;48.132;11.366;2023-05-20T14:30:48;22.80;71.60
8043;DHT22;4064;48.132;11.366;2023-05-20T14:33:14;22.80;71.10
8043;DHT22;4064;48.132;11.366;2023-05-20T14:35:39;22.70;71.80
8043;DHT22;4064;48.132;11.366;2023-05-20T14:38:05;22.60;71.60
8043;DHT22;4064;48.132;11.366;2023-05-20T14:40:31;22.60;71.70
8043;DHT22;4064;48.132;11.366;2023-05-20T14:42:57;22.50;72.50
8043;DHT22;4064;48.132;11.366;2023-05-20T14:45:22;22.40;72.90
8043;DHT22;4064;48.132;11.366;2023-05-20T14:47:49;22.40;73.50
8043;DHT22;4064;48.132;11.366;2023-05-20T14:50:16;22.40;73.60
8043;DHT22;4064;48.132;11.366;2023-05-20T14:52:41;22.30;74.10
8043;DHT22;4064;48.132;11.366;2023-05-20T14:55:09;22.30;74.30
8043;DHT22;4064;48.132;11.366;2023-05-20T14:57:35;22.20;74.60
8043;DHT22;4064;48.132;11.366;2023-05-20T15:00:01;22.20;74.90
8043;DHT22;4064;48.132;11.366;2023-05-20T15:02:26;22.10;74.50
8043;DHT22;4064;48.132;11.366;2023-05-20T15:04:52;22.10;75.40
8043;DHT22;4064;48.132;11.366;2023-05-20T15:07:18;22.10;75.30
8043;DHT22;4064;48.132;11.366;2023-05-20T15:09:44;22.00;75.50
8043;DHT22;4064;48.132;11.366;2023-05-20T15:12:10;22.00;75.30
8043;DHT22;4064;48.132;11.366;2023-05-20T15:14:36;22.00;76.70
8043;DHT22;4064;48.132;11.366;2023-05-20T15:17:03;22.10;76.50
8043;DHT22;4064;48.132;11.366;2023-05-20T15:19:31;22.10;76.50
8043;DHT22;4064;48.132;11.366;2023-05-20T15:21:57;22.00;76.80
8043;DHT22;4064;48.132;11.366;2023-05-20T15:24:22;22.00;77.30
8043;DHT22;4064;48.132;11.366;2023-05-20T15:26:48;22.00;77.90
8043;DHT22;4064;48.132;11.366;2023-05-20T15:29:15;22.00;77.90
8043;DHT22;4064;48.132;11.366;2023-05-20T15:31:41;22.00;77.80
8043;DHT22;4064;48.132;11.366;2023-05-20T15:34:06;22.00;77.40
8043;DHT22;4064;48.132;11.366;2023-05-20T15:36:32;22.00;77.10
8043;DHT22;4064;48.132;11.366;2023-05-20T15:38:58;22.00;77.90
8043;DHT22;4064;48.132;11.366;2023-05-20T15:41:24;22.00;77.70
8043;DHT22;4064;48.132;11.366;2023-05-20T15:43:50;22.00;77.60
8043;DHT22;4064;48.132;11.366;2023-05-20T15:46:16;22.00;77.20
8043;DHT22;4064;48.132;11.366;2023-05-20T15:48:43;22.00;77.60